Weathercam Coevorden Meer informatie Weathercam Coevorden



Het weer levert geen direct gevaar op.    Er zijn geen waarschuwingen afgegeven.

METAR rapporten vliegvelden

   
EHVK - Volkel Rnlafb, Netherlands
Afstand tot: ZW 18 km
Gewijzigd: 22-09-2020 23:25
Nevel, Helder  
Nevel, Helder  
   Wind: WZW 3.7 km/h
Wind: WZW 3.7 km/h
Temperatuur: 12°C
Dauwpunt: 9°C
Vochtigheid: 82%
Barometer: 1007 hPa
Bewolking: Helder
Zicht: 8 km
Bewolking: Helder
EHVK 222125Z AUTO 24002KT 8000 HZ NCD 12/09 Q1007 BLU
EDLV - Niederrhein, Germany
Afstand tot: ZO 25 km
Gewijzigd: 22-09-2020 23:20
Helder  
Helder  
   Wind: Kalm
Wind: Kalm
Temperatuur: 13°C
Dauwpunt: 8°C
Vochtigheid: 72%
Barometer: 1007 hPa
Zicht: meer dan 10 km
Bewolking: Helder
EDLV 222120Z 00000KT CAVOK 13/08 Q1007
EHDL - Deelen Rnlafb, Netherlands
Afstand tot: N 35 km
Gewijzigd: 22-09-2020 23:31
Helder  
Helder  
   Wind: varieert 5.6 km/h
Wind: varieert 5.6 km/h
Temperatuur: 10°C
Voelt als: 9°C
Dauwpunt: 8°C
Vochtigheid: 88%
Barometer: 1007 hPa
Bewolking: Helder
Zicht: meer dan 10 km
Bewolking: Helder
EHDL 222131Z AUTO VRB03KT 9999 NCD 10/08 Q1007 BLU
EHEH - Eindhoven Rnlafb, Netherlands
Afstand tot: ZW 48 km
Gewijzigd: 22-09-2020 23:25
Helder  
Helder  
   Wind: varieert 3.7 km/h
Wind: varieert 3.7 km/h
Temperatuur: 12°C
Dauwpunt: 9°C
Vochtigheid: 82%
Barometer: 1007 hPa
Bewolking: Helder
Zicht: meer dan 10 km
Bewolking: Helder
EHEH 222125Z AUTO VRB02KT 9999 NCD 12/09 Q1007 BLU
EHGR - Gilze-Rijen Rnla, Netherlands
Afstand tot: WZW 70 km
Gewijzigd: 22-09-2020 23:25
Nevel, Helder  
Nevel, Helder  
   Wind: Zuiden 1.9 km/h
Wind: Zuiden 1.9 km/h
Temperatuur: 12°C
Dauwpunt: 9°C
Vochtigheid: 82%
Barometer: 1007 hPa
Bewolking: Helder
Zicht: 7 km
Bewolking: Helder
EHGR 222125Z AUTO 18001KT 7000 BR NCD 12/09 Q1007 WHT NOSIG
EBBL - Kleine-Brogel(Ba, Belgium
Afstand tot: ZZW 71 km
Gewijzigd: 22-09-2020 23:25
Helder  
Helder  
   Wind: varieert 1.9 km/h
Wind: varieert 1.9 km/h
Temperatuur: 13°C
Dauwpunt: 9°C
Vochtigheid: 77%
Barometer: 1007 hPa
Bewolking: Helder
Zicht: meer dan 10 km
Bewolking: Helder
EBBL 222125Z VRB01KT 9999 SKC 13/09 Q1007 BLU BLU

Script ontwikkeld door  Saratoga-weather.org Aangepast voor de template door  Weerstation Leuven